Time;durP1;ratioP1;P1;durP2;ratioP2;P2;SDS_P1;SDS_P2;PMS_P1;PMS_P2;Temp;Humidity;BMP_temperature;BMP_pressure;BME280_temperature;BME280_humidity;BME280_pressure;Samples;Min_cycle;Max_cycle;Signal;HPM_P1;HPM_P2
2024/01/10 01:43:37;;;;;;;;;;;;;;;;;;4973416;28;20033;-74
2024/01/10 01:46:23;;;;;;;;;;;;;;;;;;4987658;28;19921;-74
2024/01/10 01:48:48;;;;;;;;;;;;;;;;;;4998914;28;19917;-73
2024/01/10 01:51:13;;;;;;;;;;;;;;;;;;4998420;28;19921;-74
2024/01/10 01:53:39;;;;;;;;;;;;;;;;;;4978817;28;19921;-74
2024/01/10 01:56:04;;;;;;;;;;;;;;;;;;4964529;28;20179;-73
2024/01/10 02:01:45;;;;;;;;;;;;;;;;;;5003789;28;20063;-74
2024/01/10 02:04:11;;;;;;;;;;;;;;;;;;4982780;28;19929;-73
2024/01/10 02:06:36;;;;;;;;;;;;;;;;;;4982634;28;21897;-73
2024/01/10 02:09:03;;;;;;;;;;;;;;;;;;4982352;28;20420;-74
2024/01/10 02:11:29;;;;;;;;;;;;;;;;;;4981645;28;19967;-73
2024/01/10 02:13:54;;;;;;;;;;;;;;;;;;4979501;28;21656;-73
2024/01/10 02:16:20;;;;;;;;;;;;;;;;;;4997476;28;19924;-73
2024/01/10 02:18:45;;;;;;;;;;;;;;;;;;4999600;28;19921;-73
2024/01/10 02:21:13;;;;;;;;;;;;;;;;;;4965796;28;19976;-73
2024/01/10 02:23:39;;;;;;;;;;;;;;;;;;4981812;28;20013;-73
2024/01/10 02:26:04;;;;;;;;;;;;;;;;;;4996976;28;20292;-73
2024/01/10 02:28:29;;;;;;;;;;;;;;;;;;4980371;28;20373;-74
2024/01/10 02:30:55;;;;;;;;;;;;;;;;;;4999233;28;20325;-73
2024/01/10 02:33:39;;;;;;;;;;;;;;;;;;4979883;28;19948;-72
2024/01/10 02:36:04;;;;;;;;;;;;;;;;;;4980032;28;19921;-73
2024/01/10 02:38:36;;;;;;;;;;;;;;;;;;4978433;28;19932;-73
2024/01/10 02:41:02;;;;;;;;;;;;;;;;;;4999943;28;20044;-73
2024/01/10 02:43:28;;;;;;;;;;;;;;;;;;4980593;28;19932;-73
2024/01/10 02:45:53;;;;;;;;;;;;;;;;;;4997668;28;19955;-73
2024/01/10 02:48:19;;;;;;;;;;;;;;;;;;4999436;28;20354;-73
2024/01/10 02:50:44;;;;;;;;;;;;;;;;;;4980933;28;19922;-73
2024/01/10 02:53:09;;;;;;;;;;;;;;;;;;4978615;28;19913;-73
2024/01/10 02:55:34;;;;;;;;;;;;;;;;;;4991445;28;19921;-74
2024/01/10 02:58:12;;;;;;;;;;;;;;;;;;4998890;28;20417;-74
2024/01/10 03:00:37;;;;;;;;;;;;;;;;;;4964301;28;19921;-73
2024/01/10 03:03:03;;;;;;;;;;;;;;;;;;4983135;28;19963;-73
2024/01/10 03:05:28;;;;;;;;;;;;;;;;;;4980148;28;19921;-72
2024/01/10 03:07:53;;;;;;;;;;;;;;;;;;4996504;28;20204;-73
2024/01/10 03:10:19;;;;;;;;;;;;;;;;;;4995840;28;19921;-73
2024/01/10 03:12:44;;;;;;;;;;;;;;;;;;4979963;28;19921;-73
2024/01/10 03:15:09;;;;;;;;;;;;;;;;;;4997476;28;19917;-73
2024/01/10 03:17:35;;;;;;;;;;;;;;;;;;4977956;28;19925;-73
2024/01/10 03:20:01;;;;;;;;;;;;;;;;;;4980226;28;19922;-73
2024/01/10 03:22:26;;;;;;;;;;;;;;;;;;4982120;28;19917;-73
2024/01/10 03:24:51;;;;;;;;;;;;;;;;;;4978581;28;19925;-74
2024/01/10 03:27:16;;;;;;;;;;;;;;;;;;5000703;28;20381;-73
2024/01/10 03:29:42;;;;;;;;;;;;;;;;;;4961921;28;19925;-73
2024/01/10 03:32:07;;;;;;;;;;;;;;;;;;4995589;28;20387;-73
2024/01/10 03:34:32;;;;;;;;;;;;;;;;;;4960903;28;19921;-73
2024/01/10 03:36:58;;;;;;;;;;;;;;;;;;4962700;28;20385;-73
2024/01/10 03:39:23;;;;;;;;;;;;;;;;;;4978704;28;19932;-73
2024/01/10 03:41:48;;;;;;;;;;;;;;;;;;4980623;28;19921;-73
2024/01/10 03:44:14;;;;;;;;;;;;;;;;;;4979629;28;19925;-73
2024/01/10 03:46:39;;;;;;;;;;;;;;;;;;4959417;28;19921;-74
2024/01/10 03:49:05;;;;;;;;;;;;;;;;;;4979819;28;19917;-72
2024/01/10 03:51:30;;;;;;;;;;;;;;;;;;4997805;28;19964;-74
2024/01/10 03:53:55;;;;;;;;;;;;;;;;;;4978268;28;20346;-73
2024/01/10 03:56:21;;;;;;;;;;;;;;;;;;4996537;28;19924;-73
2024/01/10 03:58:48;;;;;;;;;;;;;;;;;;4980314;28;19929;-73
2024/01/10 04:01:13;;;;;;;;;;;;;;;;;;4999200;28;20008;-73
2024/01/10 04:03:42;;;;;;;;;;;;;;;;;;4980064;28;20047;-73
2024/01/10 04:06:07;;;;;;;;;;;;;;;;;;4997114;28;19922;-74
2024/01/10 04:08:32;;;;;;;;;;;;;;;;;;4961941;28;19917;-74
2024/01/10 04:10:57;;;;;;;;;;;;;;;;;;4997643;28;20389;-74
2024/01/10 04:13:23;;;;;;;;;;;;;;;;;;4994977;28;19929;-73
2024/01/10 04:15:48;;;;;;;;;;;;;;;;;;4962997;28;19917;-73
2024/01/10 04:18:14;;;;;;;;;;;;;;;;;;4965203;28;20374;-73
2024/01/10 04:20:39;;;;;;;;;;;;;;;;;;4997039;28;19927;-73
2024/01/10 04:23:05;;;;;;;;;;;;;;;;;;4996601;28;20213;-73
2024/01/10 04:25:30;;;;;;;;;;;;;;;;;;4959340;28;20354;-74
2024/01/10 04:27:57;;;;;;;;;;;;;;;;;;4977777;28;19922;-73
2024/01/10 04:30:22;;;;;;;;;;;;;;;;;;4963656;28;20334;-74
2024/01/10 04:32:48;;;;;;;;;;;;;;;;;;4980643;28;19921;-74
2024/01/10 04:35:13;;;;;;;;;;;;;;;;;;4996681;28;19979;-74
2024/01/10 04:37:40;;;;;;;;;;;;;;;;;;4994804;28;20747;-74
2024/01/10 04:40:05;;;;;;;;;;;;;;;;;;4962906;28;19918;-74
2024/01/10 04:42:31;;;;;;;;;;;;;;;;;;4964391;28;20055;-73
2024/01/10 04:44:56;;;;;;;;;;;;;;;;;;4962783;28;19932;-75
2024/01/10 04:47:21;;;;;;;;;;;;;;;;;;4994586;28;20027;-74
2024/01/10 04:49:47;;;;;;;;;;;;;;;;;;4977121;28;19917;-74
2024/01/10 04:52:12;;;;;;;;;;;;;;;;;;4976460;28;20103;-73
2024/01/10 04:54:37;;;;;;;;;;;;;;;;;;4977606;28;19921;-73
2024/01/10 04:57:03;;;;;;;;;;;;;;;;;;4977769;28;19913;-73
2024/01/10 04:59:40;;;;;;;;;;;;;;;;;;4978468;28;19929;-73
2024/01/10 05:02:06;;;;;;;;;;;;;;;;;;4975420;28;19933;-73
2024/01/10 05:04:31;;;;;;;;;;;;;;;;;;4973670;28;19913;-74
2024/01/10 05:06:56;;;;;;;;;;;;;;;;;;4993495;28;19956;-73
2024/01/10 05:09:22;;;;;;;;;;;;;;;;;;4992140;28;19956;-73
2024/01/10 05:11:48;;;;;;;;;;;;;;;;;;4958551;28;19928;-74
2024/01/10 05:14:13;;;;;;;;;;;;;;;;;;4977983;28;20401;-74
2024/01/10 05:16:39;;;;;;;;;;;;;;;;;;4975800;28;20036;-73
2024/01/10 05:19:04;;;;;;;;;;;;;;;;;;4987187;28;19924;-73
2024/01/10 05:21:30;;;;;;;;;;;;;;;;;;4975138;28;19922;-73
2024/01/10 05:23:55;;;;;;;;;;;;;;;;;;4970779;28;19921;-73
2024/01/10 05:26:20;;;;;;;;;;;;;;;;;;4978229;28;19991;-73
2024/01/10 05:28:46;;;;;;;;;;;;;;;;;;4992323;28;19929;-72
2024/01/10 05:31:11;;;;;;;;;;;;;;;;;;4996194;28;19929;-73
2024/01/10 05:33:37;;;;;;;;;;;;;;;;;;5001767;28;19917;-73
2024/01/10 05:36:02;;;;;;;;;;;;;;;;;;4982899;28;19917;-74
2024/01/10 05:38:27;;;;;;;;;;;;;;;;;;4964796;28;19921;-73
2024/01/10 05:40:52;;;;;;;;;;;;;;;;;;4966479;28;19925;-73
2024/01/10 05:43:18;;;;;;;;;;;;;;;;;;5001004;28;20299;-74
2024/01/10 05:45:43;;;;;;;;;;;;;;;;;;4985720;28;20043;-73
2024/01/10 05:51:27;;;;;;;;;;;;;;;;;;5002210;28;19967;-73
2024/01/10 05:53:52;;;;;;;;;;;;;;;;;;4998547;28;20020;-72
2024/01/10 05:56:17;;;;;;;;;;;;;;;;;;4981184;28;20016;-74
2024/01/10 05:58:43;;;;;;;;;;;;;;;;;;4982076;28;20473;-73
2024/01/10 06:01:09;;;;;;;;;;;;;;;;;;5001037;28;19918;-74
2024/01/10 06:03:35;;;;;;;;;;;;;;;;;;4978901;28;19921;-74
2024/01/10 06:06:00;;;;;;;;;;;;;;;;;;4982081;28;19929;-73
2024/01/10 06:08:25;;;;;;;;;;;;;;;;;;4999450;28;19996;-74
2024/01/10 06:10:51;;;;;;;;;;;;;;;;;;4963790;28;20547;-72
2024/01/10 06:13:17;;;;;;;;;;;;;;;;;;4994123;28;19917;-74
2024/01/10 06:15:42;;;;;;;;;;;;;;;;;;4980427;28;20214;-73
2024/01/10 06:18:08;;;;;;;;;;;;;;;;;;4997027;28;19921;-75
2024/01/10 06:20:35;;;;;;;;;;;;;;;;;;4997277;28;20476;-73
2024/01/10 06:23:00;;;;;;;;;;;;;;;;;;4980040;28;19913;-74
2024/01/10 06:25:27;;;;;;;;;;;;;;;;;;4978946;28;19917;-74
2024/01/10 06:27:52;;;;;;;;;;;;;;;;;;4999903;28;19922;-74
2024/01/10 06:30:18;;;;;;;;;;;;;;;;;;4962570;28;19921;-73
2024/01/10 06:32:43;;;;;;;;;;;;;;;;;;4997594;28;19924;-73
2024/01/10 06:38:25;;;;;;;;;;;;;;;;;;4994286;28;20438;-73
2024/01/10 06:40:50;;;;;;;;;;;;;;;;;;4979815;28;19917;-75
2024/01/10 06:43:16;;;;;;;;;;;;;;;;;;4996924;28;19921;-74
2024/01/10 06:45:42;;;;;;;;;;;;;;;;;;4994876;28;19925;-74
2024/01/10 06:48:07;;;;;;;;;;;;;;;;;;4978816;28;19921;-74
2024/01/10 06:50:32;;;;;;;;;;;;;;;;;;4974882;28;20393;-74
2024/01/10 06:52:58;;;;;;;;;;;;;;;;;;4986837;28;19917;-74
2024/01/10 06:55:24;;;;;;;;;;;;;;;;;;4955839;28;20375;-75
2024/01/10 06:57:51;;;;;;;;;;;;;;;;;;4972712;28;19932;-74
2024/01/10 07:00:17;;;;;;;;;;;;;;;;;;4992021;28;19961;-74
2024/01/10 07:02:43;;;;;;;;;;;;;;;;;;4977240;28;19929;-74
2024/01/10 07:05:08;;;;;;;;;;;;;;;;;;4955296;28;19918;-73
2024/01/10 07:07:35;;;;;;;;;;;;;;;;;;4958646;28;19932;-74
2024/01/10 07:10:01;;;;;;;;;;;;;;;;;;4975048;28;19983;-74
2024/01/10 07:12:26;;;;;;;;;;;;;;;;;;4973028;28;19921;-74
2024/01/10 07:14:51;;;;;;;;;;;;;;;;;;4957921;28;19975;-74
2024/01/10 07:17:16;;;;;;;;;;;;;;;;;;4972919;28;20270;-74
2024/01/10 07:19:42;;;;;;;;;;;;;;;;;;4993084;28;19932;-74
2024/01/10 07:22:08;;;;;;;;;;;;;;;;;;4975911;28;19929;-73
2024/01/10 07:24:34;;;;;;;;;;;;;;;;;;4995082;28;19988;-73
2024/01/10 07:27:00;;;;;;;;;;;;;;;;;;4974390;28;19917;-74
2024/01/10 07:29:25;;;;;;;;;;;;;;;;;;4972522;28;21013;-72
2024/01/10 07:31:52;;;;;;;;;;;;;;;;;;4977122;28;19921;-74
2024/01/10 07:34:17;;;;;;;;;;;;;;;;;;4955381;28;21622;-73
2024/01/10 07:36:43;;;;;;;;;;;;;;;;;;4982832;28;20032;-73
2024/01/10 07:39:08;;;;;;;;;;;;;;;;;;5002519;28;20280;-73
2024/01/10 07:41:33;;;;;;;;;;;;;;;;;;4984184;28;19924;-73
2024/01/10 07:43:59;;;;;;;;;;;;;;;;;;5002919;28;19918;-73
2024/01/10 07:46:26;;;;;;;;;;;;;;;;;;4987725;28;20365;-73
2024/01/10 07:48:52;;;;;;;;;;;;;;;;;;5002198;28;20119;-73
2024/01/10 07:51:17;;;;;;;;;;;;;;;;;;4985273;28;20643;-74
2024/01/10 07:53:42;;;;;;;;;;;;;;;;;;4967088;28;20073;-72
2024/01/10 07:56:08;;;;;;;;;;;;;;;;;;4985344;28;20273;-73
2024/01/10 07:58:33;;;;;;;;;;;;;;;;;;4984249;28;20335;-73
2024/01/10 08:01:02;;;;;;;;;;;;;;;;;;5003927;28;19924;-73
2024/01/10 08:03:30;;;;;;;;;;;;;;;;;;4961641;28;20008;-71
2024/01/10 08:05:56;;;;;;;;;;;;;;;;;;4958035;28;19971;-72
2024/01/10 08:08:21;;;;;;;;;;;;;;;;;;4993069;28;19969;-72
2024/01/10 08:10:49;;;;;;;;;;;;;;;;;;4976278;28;19921;-73
2024/01/10 08:13:14;;;;;;;;;;;;;;;;;;4975668;28;19933;-73
2024/01/10 08:15:42;;;;;;;;;;;;;;;;;;4957945;28;19917;-72
2024/01/10 08:18:08;;;;;;;;;;;;;;;;;;4958775;28;20751;-74
2024/01/10 08:20:33;;;;;;;;;;;;;;;;;;4991786;28;19921;-70
2024/01/10 08:22:59;;;;;;;;;;;;;;;;;;4958438;28;19988;-72
2024/01/10 08:25:27;;;;;;;;;;;;;;;;;;4990718;28;19927;-72
2024/01/10 08:27:56;;;;;;;;;;;;;;;;;;4974806;28;20505;-73
2024/01/10 08:30:22;;;;;;;;;;;;;;;;;;4974492;28;20008;-72
2024/01/10 08:32:52;;;;;;;;;;;;;;;;;;4991637;28;19921;-74
2024/01/10 08:35:19;;;;;;;;;;;;;;;;;;4973773;28;19914;-73
2024/01/10 08:37:46;;;;;;;;;;;;;;;;;;4973524;28;19973;-74
2024/01/10 08:40:15;;;;;;;;;;;;;;;;;;4958042;28;20012;-72
2024/01/10 08:42:40;;;;;;;;;;;;;;;;;;4993330;28;19959;-74
2024/01/10 08:45:06;;;;;;;;;;;;;;;;;;4956334;28;20056;-73
2024/01/10 08:47:32;;;;;;;;;;;;;;;;;;4992337;28;19956;-73
2024/01/10 08:49:57;;;;;;;;;;;;;;;;;;4972198;28;19929;-74
2024/01/10 08:52:25;;;;;;;;;;;;;;;;;;4974772;28;19925;-73
2024/01/10 08:54:50;;;;;;;;;;;;;;;;;;4974399;28;19918;-72
2024/01/10 08:57:15;;;;;;;;;;;;;;;;;;4973974;28;19928;-73
2024/01/10 08:59:41;;;;;;;;;;;;;;;;;;4974637;28;20185;-74
2024/01/10 09:02:07;;;;;;;;;;;;;;;;;;4991318;28;20864;-73
2024/01/10 09:04:32;;;;;;;;;;;;;;;;;;4973352;28;19960;-73
2024/01/10 09:07:09;;;;;;;;;;;;;;;;;;4975890;28;19925;-72
2024/01/10 09:09:34;;;;;;;;;;;;;;;;;;4990521;28;19972;-72
2024/01/10 09:12:05;;;;;;;;;;;;;;;;;;4992605;28;19925;-73
2024/01/10 09:14:33;;;;;;;;;;;;;;;;;;4971403;28;20011;-73
2024/01/10 09:17:03;;;;;;;;;;;;;;;;;;4960321;28;19921;-73
2024/01/10 09:19:28;;;;;;;;;;;;;;;;;;4973375;28;20380;-74
2024/01/10 09:21:57;;;;;;;;;;;;;;;;;;4992373;28;19925;-73
2024/01/10 09:24:29;;;;;;;;;;;;;;;;;;4972196;28;20254;-74
2024/01/10 09:26:54;;;;;;;;;;;;;;;;;;4989849;28;20408;-74
2024/01/10 09:29:20;;;;;;;;;;;;;;;;;;4974151;28;19975;-74
2024/01/10 09:31:45;;;;;;;;;;;;;;;;;;4991271;28;19913;-73
2024/01/10 09:34:13;;;;;;;;;;;;;;;;;;4957598;28;19922;-74
2024/01/10 09:36:41;;;;;;;;;;;;;;;;;;4974391;28;20266;-75
2024/01/10 09:39:13;;;;;;;;;;;;;;;;;;4973298;28;20270;-74
2024/01/10 09:41:38;;;;;;;;;;;;;;;;;;4973959;28;19948;-73
2024/01/10 09:44:04;;;;;;;;;;;;;;;;;;4992409;28;21166;-75
2024/01/10 09:46:29;;;;;;;;;;;;;;;;;;4956310;28;19936;-75
2024/01/10 09:48:58;;;;;;;;;;;;;;;;;;4992632;28;19925;-74
2024/01/10 09:51:25;;;;;;;;;;;;;;;;;;4956655;28;19924;-74
2024/01/10 09:53:51;;;;;;;;;;;;;;;;;;4974075;28;20420;-74
2024/01/10 09:56:16;;;;;;;;;;;;;;;;;;4972492;28;19924;-74
2024/01/10 09:58:41;;;;;;;;;;;;;;;;;;4973304;28;20060;-74
2024/01/10 10:01:06;;;;;;;;;;;;;;;;;;4990207;28;20017;-74
2024/01/10 10:03:37;;;;;;;;;;;;;;;;;;4978325;28;19922;-75
2024/01/10 10:06:05;;;;;;;;;;;;;;;;;;4973955;28;19917;-75
2024/01/10 10:08:30;;;;;;;;;;;;;;;;;;4958441;28;19987;-72
2024/01/10 10:10:55;;;;;;;;;;;;;;;;;;4956203;28;20370;-75
2024/01/10 10:13:23;;;;;;;;;;;;;;;;;;4957366;28;20282;-74
2024/01/10 10:15:51;;;;;;;;;;;;;;;;;;4972642;28;19922;-73
2024/01/10 10:18:19;;;;;;;;;;;;;;;;;;4975942;28;19957;-75
2024/01/10 10:20:45;;;;;;;;;;;;;;;;;;4993397;28;20136;-75
2024/01/10 10:23:12;;;;;;;;;;;;;;;;;;4995955;28;19928;-75
2024/01/10 10:25:40;;;;;;;;;;;;;;;;;;4961388;28;19923;-76
2024/01/10 10:28:05;;;;;;;;;;;;;;;;;;4977743;28;20588;-75
2024/01/10 10:30:31;;;;;;;;;;;;;;;;;;4976659;28;19917;-74
2024/01/10 10:33:01;;;;;;;;;;;;;;;;;;4976821;28;19922;-74
2024/01/10 10:35:30;;;;;;;;;;;;;;;;;;4975190;28;19921;-76
2024/01/10 10:37:56;;;;;;;;;;;;;;;;;;4959458;28;20731;-75
2024/01/10 10:40:21;;;;;;;;;;;;;;;;;;4960026;28;20078;-74
2024/01/10 10:42:49;;;;;;;;;;;;;;;;;;4975667;28;19923;-74
2024/01/10 10:45:16;;;;;;;;;;;;;;;;;;4975853;28;19926;-76
2024/01/10 10:47:43;;;;;;;;;;;;;;;;;;4961253;28;20034;-73
2024/01/10 10:50:10;;;;;;;;;;;;;;;;;;4974983;28;20369;-76
2024/01/10 10:52:41;;;;;;;;;;;;;;;;;;4962550;28;19925;-76
2024/01/10 10:55:06;;;;;;;;;;;;;;;;;;4993923;28;20013;-76
2024/01/10 10:57:31;;;;;;;;;;;;;;;;;;4993386;28;19922;-75
2024/01/10 10:59:57;;;;;;;;;;;;;;;;;;4975949;28;21629;-76
2024/01/10 11:02:23;;;;;;;;;;;;;;;;;;4958724;28;19944;-75
2024/01/10 11:04:48;;;;;;;;;;;;;;;;;;4959229;28;19921;-74
2024/01/10 11:07:20;;;;;;;;;;;;;;;;;;4960795;28;19921;-73
2024/01/10 11:09:45;;;;;;;;;;;;;;;;;;4975124;28;20679;-74
2024/01/10 11:12:11;;;;;;;;;;;;;;;;;;4993908;28;19921;-76
2024/01/10 11:14:41;;;;;;;;;;;;;;;;;;4974685;28;20340;-76
2024/01/10 11:17:11;;;;;;;;;;;;;;;;;;4976565;28;20401;-73
2024/01/10 11:19:37;;;;;;;;;;;;;;;;;;4993748;28;19964;-76
2024/01/10 11:22:05;;;;;;;;;;;;;;;;;;4960173;28;19949;-78
2024/01/10 11:24:34;;;;;;;;;;;;;;;;;;4975835;28;20020;-76
2024/01/10 11:30:16;;;;;;;;;;;;;;;;;;4991625;28;19928;-75
2024/01/10 11:32:41;;;;;;;;;;;;;;;;;;4976892;28;20271;-75
2024/01/10 11:35:12;;;;;;;;;;;;;;;;;;4976528;28;19924;-76
2024/01/10 11:37:38;;;;;;;;;;;;;;;;;;4989860;28;20389;-76
2024/01/10 11:40:06;;;;;;;;;;;;;;;;;;4975138;28;20000;-75
2024/01/10 11:42:31;;;;;;;;;;;;;;;;;;4977578;28;19922;-75
2024/01/10 11:44:57;;;;;;;;;;;;;;;;;;4992493;28;20343;-77
2024/01/10 11:50:16;;;;;;;;;;;;;;;;;;4990917;28;19968;-75
2024/01/10 11:55:58;;;;;;;;;;;;;;;;;;4992298;28;19967;-76
2024/01/10 11:58:27;;;;;;;;;;;;;;;;;;4975229;28;20056;-76
2024/01/10 12:00:53;;;;;;;;;;;;;;;;;;4972516;28;19965;-76
2024/01/10 12:03:21;;;;;;;;;;;;;;;;;;4974683;28;19929;-75
2024/01/10 12:05:47;;;;;;;;;;;;;;;;;;4974598;28;19961;-74
2024/01/10 12:08:12;;;;;;;;;;;;;;;;;;4976571;28;20077;-76
2024/01/10 12:10:40;;;;;;;;;;;;;;;;;;4970818;28;20380;-78
2024/01/10 12:13:06;;;;;;;;;;;;;;;;;;4977054;28;19921;-77
2024/01/10 12:15:34;;;;;;;;;;;;;;;;;;4956374;28;19987;-76
2024/01/10 12:17:59;;;;;;;;;;;;;;;;;;4993198;28;19931;-77
2024/01/10 12:23:41;;;;;;;;;;;;;;;;;;4993426;28;19929;-76
2024/01/10 12:26:07;;;;;;;;;;;;;;;;;;4972974;28;19918;-76
2024/01/10 12:28:33;;;;;;;;;;;;;;;;;;4975890;28;19922;-75
2024/01/10 12:30:59;;;;;;;;;;;;;;;;;;4975455;28;19917;-76
2024/01/10 12:33:24;;;;;;;;;;;;;;;;;;4976575;28;20371;-77
2024/01/10 12:35:49;;;;;;;;;;;;;;;;;;4973879;28;19917;-75
2024/01/10 12:38:15;;;;;;;;;;;;;;;;;;4958350;28;20008;-75
2024/01/10 12:40:40;;;;;;;;;;;;;;;;;;4974333;28;19920;-74
2024/01/10 12:43:06;;;;;;;;;;;;;;;;;;4973189;28;19944;-77
2024/01/10 12:45:31;;;;;;;;;;;;;;;;;;4992452;28;19931;-77
2024/01/10 12:47:59;;;;;;;;;;;;;;;;;;4992798;28;20044;-73
2024/01/10 12:50:26;;;;;;;;;;;;;;;;;;4975931;28;19983;-77
2024/01/10 12:52:57;;;;;;;;;;;;;;;;;;4975294;28;19964;-76
2024/01/10 12:55:24;;;;;;;;;;;;;;;;;;4976132;28;19925;-75
2024/01/10 12:57:50;;;;;;;;;;;;;;;;;;4993117;28;19917;-77
2024/01/10 13:00:15;;;;;;;;;;;;;;;;;;4974765;28;20411;-77
2024/01/10 13:02:41;;;;;;;;;;;;;;;;;;4976550;28;19925;-78
2024/01/10 13:05:10;;;;;;;;;;;;;;;;;;4991642;28;19917;-75
2024/01/10 13:07:35;;;;;;;;;;;;;;;;;;4960690;28;20008;-77
2024/01/10 13:10:03;;;;;;;;;;;;;;;;;;4974581;28;20298;-77
2024/01/10 13:12:28;;;;;;;;;;;;;;;;;;4973951;28;19918;-76
2024/01/10 13:14:55;;;;;;;;;;;;;;;;;;4975466;28;19953;-77
2024/01/10 13:17:20;;;;;;;;;;;;;;;;;;4976790;28;20040;-75
2024/01/10 13:19:48;;;;;;;;;;;;;;;;;;4974825;28;19968;-76
2024/01/10 13:22:15;;;;;;;;;;;;;;;;;;4995312;28;20047;-75
2024/01/10 13:24:41;;;;;;;;;;;;;;;;;;4993901;28;19972;-78
2024/01/10 13:27:07;;;;;;;;;;;;;;;;;;4992141;28;20012;-75
2024/01/10 13:29:34;;;;;;;;;;;;;;;;;;4975685;28;19917;-74
2024/01/10 13:32:00;;;;;;;;;;;;;;;;;;4994736;28;19983;-75
2024/01/10 13:34:26;;;;;;;;;;;;;;;;;;4994292;28;20444;-75
2024/01/10 13:36:51;;;;;;;;;;;;;;;;;;4976597;28;20007;-77
2024/01/10 13:39:18;;;;;;;;;;;;;;;;;;4979139;28;19993;-77
2024/01/10 13:41:44;;;;;;;;;;;;;;;;;;4987333;28;19921;-78
2024/01/10 13:44:10;;;;;;;;;;;;;;;;;;4984824;28;19922;-78
2024/01/10 13:46:36;;;;;;;;;;;;;;;;;;4967717;28;20598;-77
2024/01/10 13:49:01;;;;;;;;;;;;;;;;;;5002152;28;19921;-78
2024/01/10 13:51:45;;;;;;;;;;;;;;;;;;4983457;28;19925;-77
2024/01/10 13:54:12;;;;;;;;;;;;;;;;;;4973942;28;19922;-77
2024/01/10 13:56:39;;;;;;;;;;;;;;;;;;4960418;28;19929;-77
2024/01/10 13:59:04;;;;;;;;;;;;;;;;;;4979553;28;19925;-78
2024/01/10 14:01:30;;;;;;;;;;;;;;;;;;4962644;28;20639;-77
2024/01/10 14:03:58;;;;;;;;;;;;;;;;;;4961105;28;20629;-78
2024/01/10 14:06:23;;;;;;;;;;;;;;;;;;4976177;28;20036;-75
2024/01/10 14:08:49;;;;;;;;;;;;;;;;;;4997324;28;19921;-78
2024/01/10 14:11:15;;;;;;;;;;;;;;;;;;4992951;28;19917;-77
2024/01/10 14:13:40;;;;;;;;;;;;;;;;;;4995629;28;20038;-77
2024/01/10 14:16:05;;;;;;;;;;;;;;;;;;4959170;28;20981;-78
2024/01/10 14:18:31;;;;;;;;;;;;;;;;;;4997384;28;19925;-78
2024/01/10 14:20:56;;;;;;;;;;;;;;;;;;4994767;28;20081;-78
2024/01/10 14:23:21;;;;;;;;;;;;;;;;;;4978895;28;19921;-79
2024/01/10 14:25:47;;;;;;;;;;;;;;;;;;4994658;28;20379;-77
2024/01/10 14:28:13;;;;;;;;;;;;;;;;;;4977050;28;19964;-77
2024/01/10 14:30:38;;;;;;;;;;;;;;;;;;4995493;28;19924;-78
2024/01/10 14:33:04;;;;;;;;;;;;;;;;;;4997310;28;20156;-78
2024/01/10 14:35:29;;;;;;;;;;;;;;;;;;4994798;28;20000;-77
2024/01/10 14:37:54;;;;;;;;;;;;;;;;;;4978130;28;19968;-77
2024/01/10 14:43:36;;;;;;;;;;;;;;;;;;4994123;28;19976;-77
2024/01/10 14:46:02;;;;;;;;;;;;;;;;;;4960133;28;19933;-77
2024/01/10 14:48:27;;;;;;;;;;;;;;;;;;4995320;28;19926;-77
2024/01/10 14:50:52;;;;;;;;;;;;;;;;;;4974832;28;19952;-78
2024/01/10 14:53:18;;;;;;;;;;;;;;;;;;4975982;28;19918;-76
2024/01/10 14:55:44;;;;;;;;;;;;;;;;;;4961496;28;19924;-78
2024/01/10 14:58:10;;;;;;;;;;;;;;;;;;4976940;28;20112;-77
2024/01/10 15:00:36;;;;;;;;;;;;;;;;;;4978213;28;19922;-77
2024/01/10 15:03:03;;;;;;;;;;;;;;;;;;4976488;28;19984;-77
2024/01/10 15:05:32;;;;;;;;;;;;;;;;;;4993887;28;19923;-79
2024/01/10 15:07:57;;;;;;;;;;;;;;;;;;4976756;28;19918;-74
2024/01/10 15:10:22;;;;;;;;;;;;;;;;;;4978889;28;20243;-76
2024/01/10 15:12:47;;;;;;;;;;;;;;;;;;4961081;28;19928;-76
2024/01/10 15:15:13;;;;;;;;;;;;;;;;;;4961387;28;19921;-76
2024/01/10 15:17:50;;;;;;;;;;;;;;;;;;4996185;28;20439;-78
2024/01/10 15:20:18;;;;;;;;;;;;;;;;;;4975848;28;19944;-77
2024/01/10 15:22:43;;;;;;;;;;;;;;;;;;4976958;28;20345;-77
2024/01/10 15:25:09;;;;;;;;;;;;;;;;;;4994009;28;19971;-78
2024/01/10 15:27:34;;;;;;;;;;;;;;;;;;4961744;28;20037;-77
2024/01/10 15:29:59;;;;;;;;;;;;;;;;;;4991599;28;20332;-77
2024/01/10 15:32:25;;;;;;;;;;;;;;;;;;4977548;28;19922;-78
2024/01/10 15:34:50;;;;;;;;;;;;;;;;;;4995270;28;19921;-77
2024/01/10 15:37:15;;;;;;;;;;;;;;;;;;4972970;28;19921;-76
2024/01/10 15:39:41;;;;;;;;;;;;;;;;;;4976876;28;20357;-76
2024/01/10 15:42:06;;;;;;;;;;;;;;;;;;4958953;28;19945;-76
2024/01/10 15:44:31;;;;;;;;;;;;;;;;;;4990176;28;19948;-76
2024/01/10 15:46:57;;;;;;;;;;;;;;;;;;4971652;28;20377;-76
2024/01/10 15:49:22;;;;;;;;;;;;;;;;;;4989677;28;19964;-75
2024/01/10 15:51:48;;;;;;;;;;;;;;;;;;4972116;28;20357;-75
2024/01/10 15:54:14;;;;;;;;;;;;;;;;;;4993918;28;20377;-76
2024/01/10 15:56:40;;;;;;;;;;;;;;;;;;4994059;28;19917;-75
2024/01/10 15:59:07;;;;;;;;;;;;;;;;;;4962876;28;19929;-75
2024/01/10 16:01:32;;;;;;;;;;;;;;;;;;4994731;28;21398;-75
2024/01/10 16:03:58;;;;;;;;;;;;;;;;;;4975041;28;20373;-76
2024/01/10 16:09:41;;;;;;;;;;;;;;;;;;4995500;28;20400;-76
2024/01/10 16:12:07;;;;;;;;;;;;;;;;;;4999176;28;20400;-76
2024/01/10 16:14:32;;;;;;;;;;;;;;;;;;4966680;28;19921;-75
2024/01/10 16:16:57;;;;;;;;;;;;;;;;;;4982947;28;19917;-74
2024/01/10 16:19:22;;;;;;;;;;;;;;;;;;4996512;28;19932;-75
2024/01/10 16:21:48;;;;;;;;;;;;;;;;;;5008078;28;20369;-75
2024/01/10 16:24:13;;;;;;;;;;;;;;;;;;4990185;28;19949;-76
2024/01/10 16:26:39;;;;;;;;;;;;;;;;;;4997968;28;19925;-76
2024/01/10 16:29:04;;;;;;;;;;;;;;;;;;4977701;28;20024;-75
2024/01/10 16:31:29;;;;;;;;;;;;;;;;;;5007137;28;20202;-75
2024/01/10 16:33:55;;;;;;;;;;;;;;;;;;4992039;28;19917;-75
2024/01/10 16:36:20;;;;;;;;;;;;;;;;;;5005205;28;19928;-75
2024/01/10 16:38:45;;;;;;;;;;;;;;;;;;5008384;28;19929;-74
2024/01/10 16:41:10;;;;;;;;;;;;;;;;;;4987229;28;20357;-75
2024/01/10 16:43:36;;;;;;;;;;;;;;;;;;5007159;28;19913;-76
2024/01/10 16:46:01;;;;;;;;;;;;;;;;;;4991397;28;20239;-75
2024/01/10 16:48:27;;;;;;;;;;;;;;;;;;5003446;28;19991;-76
2024/01/10 16:50:54;;;;;;;;;;;;;;;;;;4973493;28;19960;-75
2024/01/10 16:53:20;;;;;;;;;;;;;;;;;;4984444;28;20383;-75
2024/01/10 16:55:45;;;;;;;;;;;;;;;;;;4982092;28;20001;-75
2024/01/10 16:58:10;;;;;;;;;;;;;;;;;;4985439;28;20079;-77
2024/01/10 17:00:36;;;;;;;;;;;;;;;;;;4982093;28;19917;-76
2024/01/10 17:03:01;;;;;;;;;;;;;;;;;;5002690;28;20289;-75
2024/01/10 17:05:27;;;;;;;;;;;;;;;;;;4986691;28;19913;-76
2024/01/10 17:07:52;;;;;;;;;;;;;;;;;;4981700;28;19913;-76
2024/01/10 17:10:17;;;;;;;;;;;;;;;;;;4983960;28;19921;-75
2024/01/10 17:12:42;;;;;;;;;;;;;;;;;;4976351;28;20008;-75
2024/01/10 17:15:08;;;;;;;;;;;;;;;;;;4997189;28;19971;-75
2024/01/10 17:17:33;;;;;;;;;;;;;;;;;;4976217;28;20529;-76
2024/01/10 17:19:58;;;;;;;;;;;;;;;;;;4995635;28;19963;-75
2024/01/10 17:22:24;;;;;;;;;;;;;;;;;;4980889;28;19965;-76
2024/01/10 17:24:50;;;;;;;;;;;;;;;;;;4982269;28;19983;-75
2024/01/10 17:27:15;;;;;;;;;;;;;;;;;;4962921;28;19948;-76
2024/01/10 17:29:41;;;;;;;;;;;;;;;;;;4978180;28;20016;-77
2024/01/10 17:32:06;;;;;;;;;;;;;;;;;;4971622;28;20349;-67
2024/01/10 17:34:32;;;;;;;;;;;;;;;;;;4994329;28;19921;-75
2024/01/10 17:36:57;;;;;;;;;;;;;;;;;;4982157;28;20072;-75
2024/01/10 17:39:23;;;;;;;;;;;;;;;;;;4965097;28;19925;-74
2024/01/10 17:41:48;;;;;;;;;;;;;;;;;;4999985;28;19914;-74
2024/01/10 17:44:13;;;;;;;;;;;;;;;;;;4981620;28;20448;-75
2024/01/10 17:46:38;;;;;;;;;;;;;;;;;;4914147;28;1866609;-76
2024/01/10 17:49:04;;;;;;;;;;;;;;;;;;4981292;28;20332;-75
2024/01/10 17:51:29;;;;;;;;;;;;;;;;;;4997695;28;20437;-75
2024/01/10 17:53:55;;;;;;;;;;;;;;;;;;4962995;28;20298;-75
2024/01/10 17:56:23;;;;;;;;;;;;;;;;;;4979733;28;20387;-74
2024/01/10 17:58:48;;;;;;;;;;;;;;;;;;4980621;28;19925;-74
2024/01/10 18:01:14;;;;;;;;;;;;;;;;;;4999043;28;19914;-74
2024/01/10 18:03:39;;;;;;;;;;;;;;;;;;4981185;28;19920;-75
2024/01/10 18:06:04;;;;;;;;;;;;;;;;;;4974410;28;19922;-77
2024/01/10 18:08:30;;;;;;;;;;;;;;;;;;4974166;28;19924;-75
2024/01/10 18:10:55;;;;;;;;;;;;;;;;;;4960934;28;20318;-75
2024/01/10 18:16:15;;;;;;;;;;;;;;;;;;4980390;28;20373;-75
2024/01/10 18:18:43;;;;;;;;;;;;;;;;;;4976515;28;19926;-75
2024/01/10 18:21:08;;;;;;;;;;;;;;;;;;4992315;28;19922;-75
2024/01/10 18:23:34;;;;;;;;;;;;;;;;;;4973531;28;19922;-76
2024/01/10 18:25:59;;;;;;;;;;;;;;;;;;4956817;28;19921;-74
2024/01/10 18:28:24;;;;;;;;;;;;;;;;;;4993256;28;19917;-75
2024/01/10 18:30:50;;;;;;;;;;;;;;;;;;4958737;28;19918;-75
2024/01/10 18:33:16;;;;;;;;;;;;;;;;;;4993565;28;19921;-73
2024/01/10 18:35:41;;;;;;;;;;;;;;;;;;4974192;28;19921;-75
2024/01/10 18:38:07;;;;;;;;;;;;;;;;;;4994506;28;19917;-75
2024/01/10 18:40:33;;;;;;;;;;;;;;;;;;4980117;28;19932;-75
2024/01/10 18:42:58;;;;;;;;;;;;;;;;;;4978154;28;20016;-76
2024/01/10 18:45:23;;;;;;;;;;;;;;;;;;4978212;28;20028;-74
2024/01/10 18:47:49;;;;;;;;;;;;;;;;;;4996299;28;19949;-76
2024/01/10 18:50:15;;;;;;;;;;;;;;;;;;4996850;28;21549;-75
2024/01/10 18:52:40;;;;;;;;;;;;;;;;;;4978221;28;19914;-77